sensor_id;sensor_type;location;lat;lon;timestamp;P1;durP1;ratioP1;P2;durP2;ratioP2
11655;SDS011;5884;43.618;1.438;2023-02-03T05:45:19;20.50;;;10.03;;
11655;SDS011;5884;43.618;1.438;2023-02-03T05:47:46;22.60;;;11.37;;
11655;SDS011;5884;43.618;1.438;2023-02-03T05:50:13;21.33;;;10.57;;
11655;SDS011;5884;43.618;1.438;2023-02-03T05:52:41;20.83;;;10.60;;
11655;SDS011;5884;43.618;1.438;2023-02-03T05:55:08;20.73;;;10.83;;
11655;SDS011;5884;43.618;1.438;2023-02-03T05:57:36;21.77;;;10.07;;
11655;SDS011;5884;43.618;1.438;2023-02-03T06:00:03;21.93;;;9.47;;
11655;SDS011;5884;43.618;1.438;2023-02-03T06:02:33;23.00;;;10.73;;
11655;SDS011;5884;43.618;1.438;2023-02-03T06:05:01;21.27;;;10.63;;
11655;SDS011;5884;43.618;1.438;2023-02-03T06:07:28;19.73;;;10.33;;
11655;SDS011;5884;43.618;1.438;2023-02-03T06:09:56;23.13;;;10.63;;
11655;SDS011;5884;43.618;1.438;2023-02-03T06:12:24;23.17;;;11.17;;
11655;SDS011;5884;43.618;1.438;2023-02-03T06:14:51;25.23;;;11.27;;
11655;SDS011;5884;43.618;1.438;2023-02-03T06:17:18;21.43;;;10.97;;
11655;SDS011;5884;43.618;1.438;2023-02-03T06:19:47;22.83;;;11.07;;
11655;SDS011;5884;43.618;1.438;2023-02-03T06:22:14;24.50;;;10.47;;
11655;SDS011;5884;43.618;1.438;2023-02-03T06:24:41;23.43;;;11.27;;
11655;SDS011;5884;43.618;1.438;2023-02-03T06:27:10;20.83;;;11.43;;
11655;SDS011;5884;43.618;1.438;2023-02-03T06:29:37;23.17;;;12.13;;
11655;SDS011;5884;43.618;1.438;2023-02-03T06:32:08;26.93;;;12.23;;
11655;SDS011;5884;43.618;1.438;2023-02-03T06:34:35;24.40;;;11.93;;
11655;SDS011;5884;43.618;1.438;2023-02-03T06:37:04;21.40;;;11.90;;
11655;SDS011;5884;43.618;1.438;2023-02-03T06:39:31;26.40;;;11.87;;
11655;SDS011;5884;43.618;1.438;2023-02-03T06:41:58;24.67;;;13.13;;
11655;SDS011;5884;43.618;1.438;2023-02-03T06:44:26;24.70;;;13.00;;
11655;SDS011;5884;43.618;1.438;2023-02-03T06:46:53;21.93;;;12.67;;
11655;SDS011;5884;43.618;1.438;2023-02-03T06:49:22;23.40;;;11.67;;
11655;SDS011;5884;43.618;1.438;2023-02-03T06:51:50;25.97;;;11.80;;
11655;SDS011;5884;43.618;1.438;2023-02-03T06:54:19;27.23;;;11.43;;
11655;SDS011;5884;43.618;1.438;2023-02-03T06:56:46;20.20;;;11.93;;
11655;SDS011;5884;43.618;1.438;2023-02-03T06:59:13;23.83;;;12.77;;
11655;SDS011;5884;43.618;1.438;2023-02-03T07:01:40;20.43;;;11.90;;
11655;SDS011;5884;43.618;1.438;2023-02-03T07:04:08;22.77;;;11.27;;
11655;SDS011;5884;43.618;1.438;2023-02-03T07:06:35;25.73;;;11.50;;
11655;SDS011;5884;43.618;1.438;2023-02-03T07:09:03;26.63;;;11.83;;
11655;SDS011;5884;43.618;1.438;2023-02-03T07:11:32;27.87;;;11.77;;
11655;SDS011;5884;43.618;1.438;2023-02-03T07:14:00;24.97;;;12.07;;
11655;SDS011;5884;43.618;1.438;2023-02-03T07:16:28;26.57;;;11.93;;
11655;SDS011;5884;43.618;1.438;2023-02-03T07:18:55;26.63;;;12.00;;
11655;SDS011;5884;43.618;1.438;2023-02-03T07:21:22;31.27;;;11.83;;
11655;SDS011;5884;43.618;1.438;2023-02-03T07:23:50;27.87;;;12.57;;
11655;SDS011;5884;43.618;1.438;2023-02-03T07:26:17;23.20;;;12.23;;
11655;SDS011;5884;43.618;1.438;2023-02-03T07:28:48;24.30;;;12.40;;
11655;SDS011;5884;43.618;1.438;2023-02-03T07:31:16;26.73;;;12.03;;
11655;SDS011;5884;43.618;1.438;2023-02-03T07:33:43;32.67;;;11.67;;
11655;SDS011;5884;43.618;1.438;2023-02-03T07:36:11;24.07;;;11.53;;
11655;SDS011;5884;43.618;1.438;2023-02-03T07:38:38;26.03;;;11.70;;
11655;SDS011;5884;43.618;1.438;2023-02-03T07:41:05;26.67;;;11.40;;
11655;SDS011;5884;43.618;1.438;2023-02-03T07:43:32;29.07;;;11.43;;
11655;SDS011;5884;43.618;1.438;2023-02-03T07:46:01;24.20;;;12.77;;
11655;SDS011;5884;43.618;1.438;2023-02-03T07:48:29;21.97;;;11.20;;
11655;SDS011;5884;43.618;1.438;2023-02-03T07:50:56;29.17;;;12.47;;
11655;SDS011;5884;43.618;1.438;2023-02-03T07:53:23;27.77;;;11.97;;
11655;SDS011;5884;43.618;1.438;2023-02-03T07:55:50;33.07;;;13.13;;
11655;SDS011;5884;43.618;1.438;2023-02-03T07:58:18;28.63;;;12.87;;
11655;SDS011;5884;43.618;1.438;2023-02-03T08:00:45;34.03;;;13.87;;
11655;SDS011;5884;43.618;1.438;2023-02-03T08:03:13;28.00;;;12.90;;
11655;SDS011;5884;43.618;1.438;2023-02-03T08:05:40;25.63;;;12.20;;
11655;SDS011;5884;43.618;1.438;2023-02-03T08:08:08;31.70;;;12.10;;
11655;SDS011;5884;43.618;1.438;2023-02-03T08:10:35;27.43;;;12.63;;
11655;SDS011;5884;43.618;1.438;2023-02-03T08:13:02;30.47;;;12.80;;
11655;SDS011;5884;43.618;1.438;2023-02-03T08:15:29;30.13;;;12.90;;
11655;SDS011;5884;43.618;1.438;2023-02-03T08:17:57;27.17;;;12.20;;
11655;SDS011;5884;43.618;1.438;2023-02-03T08:20:25;33.37;;;13.43;;
11655;SDS011;5884;43.618;1.438;2023-02-03T08:22:53;21.27;;;11.77;;
11655;SDS011;5884;43.618;1.438;2023-02-03T08:25:20;28.93;;;12.90;;
11655;SDS011;5884;43.618;1.438;2023-02-03T08:27:47;24.47;;;12.70;;
11655;SDS011;5884;43.618;1.438;2023-02-03T08:30:14;26.00;;;12.70;;
11655;SDS011;5884;43.618;1.438;2023-02-03T08:32:42;33.40;;;14.20;;
11655;SDS011;5884;43.618;1.438;2023-02-03T08:35:09;27.90;;;12.63;;
11655;SDS011;5884;43.618;1.438;2023-02-03T08:37:37;26.97;;;12.63;;
11655;SDS011;5884;43.618;1.438;2023-02-03T08:40:05;26.17;;;13.23;;
11655;SDS011;5884;43.618;1.438;2023-02-03T08:42:33;26.03;;;13.27;;
11655;SDS011;5884;43.618;1.438;2023-02-03T08:45:01;26.00;;;13.47;;
11655;SDS011;5884;43.618;1.438;2023-02-03T08:47:29;26.70;;;12.43;;
11655;SDS011;5884;43.618;1.438;2023-02-03T08:49:56;28.70;;;13.00;;
11655;SDS011;5884;43.618;1.438;2023-02-03T08:52:23;22.77;;;11.80;;
11655;SDS011;5884;43.618;1.438;2023-02-03T08:54:52;26.07;;;12.40;;
11655;SDS011;5884;43.618;1.438;2023-02-03T08:57:19;23.97;;;11.67;;
11655;SDS011;5884;43.618;1.438;2023-02-03T08:59:47;24.00;;;11.43;;
11655;SDS011;5884;43.618;1.438;2023-02-03T09:02:16;22.83;;;10.77;;
11655;SDS011;5884;43.618;1.438;2023-02-03T09:04:44;22.33;;;11.03;;
11655;SDS011;5884;43.618;1.438;2023-02-03T09:07:13;22.60;;;12.17;;
11655;SDS011;5884;43.618;1.438;2023-02-03T09:09:40;25.20;;;11.40;;
11655;SDS011;5884;43.618;1.438;2023-02-03T09:12:09;22.80;;;11.07;;
11655;SDS011;5884;43.618;1.438;2023-02-03T09:14:37;25.57;;;11.93;;
11655;SDS011;5884;43.618;1.438;2023-02-03T09:17:05;22.93;;;11.83;;
11655;SDS011;5884;43.618;1.438;2023-02-03T09:19:33;28.10;;;12.03;;
11655;SDS011;5884;43.618;1.438;2023-02-03T09:22:00;31.90;;;12.83;;
11655;SDS011;5884;43.618;1.438;2023-02-03T09:24:28;31.33;;;12.83;;
11655;SDS011;5884;43.618;1.438;2023-02-03T09:26:55;22.43;;;11.43;;
11655;SDS011;5884;43.618;1.438;2023-02-03T09:29:26;25.03;;;12.03;;
11655;SDS011;5884;43.618;1.438;2023-02-03T09:31:53;23.37;;;10.80;;
11655;SDS011;5884;43.618;1.438;2023-02-03T09:34:20;24.87;;;10.80;;
11655;SDS011;5884;43.618;1.438;2023-02-03T09:36:48;19.33;;;10.73;;
11655;SDS011;5884;43.618;1.438;2023-02-03T09:39:16;23.33;;;11.83;;
11655;SDS011;5884;43.618;1.438;2023-02-03T09:41:54;22.97;;;11.97;;
11655;SDS011;5884;43.618;1.438;2023-02-03T09:45:12;24.77;;;11.90;;
11655;SDS011;5884;43.618;1.438;2023-02-03T09:47:45;25.23;;;12.47;;
11655;SDS011;5884;43.618;1.438;2023-02-03T09:50:18;28.17;;;12.03;;
11655;SDS011;5884;43.618;1.438;2023-02-03T09:52:47;27.17;;;12.83;;
11655;SDS011;5884;43.618;1.438;2023-02-03T09:55:23;22.33;;;12.50;;
11655;SDS011;5884;43.618;1.438;2023-02-03T09:57:57;23.60;;;13.00;;
11655;SDS011;5884;43.618;1.438;2023-02-03T10:00:31;30.13;;;12.20;;
11655;SDS011;5884;43.618;1.438;2023-02-03T10:03:05;33.63;;;13.60;;
11655;SDS011;5884;43.618;1.438;2023-02-03T10:11:42;23.80;;;12.40;;
11655;SDS011;5884;43.618;1.438;2023-02-03T10:14:30;28.23;;;12.63;;
11655;SDS011;5884;43.618;1.438;2023-02-03T10:17:13;23.93;;;11.30;;
11655;SDS011;5884;43.618;1.438;2023-02-03T10:19:54;25.30;;;11.13;;
11655;SDS011;5884;43.618;1.438;2023-02-03T10:22:28;24.27;;;11.47;;
11655;SDS011;5884;43.618;1.438;2023-02-03T10:25:02;26.33;;;11.37;;
11655;SDS011;5884;43.618;1.438;2023-02-03T10:27:34;24.73;;;11.73;;
11655;SDS011;5884;43.618;1.438;2023-02-03T10:30:04;22.27;;;11.73;;
11655;SDS011;5884;43.618;1.438;2023-02-03T10:32:44;21.17;;;11.63;;
11655;SDS011;5884;43.618;1.438;2023-02-03T10:35:14;20.80;;;11.10;;
11655;SDS011;5884;43.618;1.438;2023-02-03T10:37:42;21.83;;;11.43;;
11655;SDS011;5884;43.618;1.438;2023-02-03T10:40:13;24.30;;;11.57;;
11655;SDS011;5884;43.618;1.438;2023-02-03T10:42:41;21.87;;;10.90;;
11655;SDS011;5884;43.618;1.438;2023-02-03T10:45:30;21.40;;;10.63;;
11655;SDS011;5884;43.618;1.438;2023-02-03T10:48:04;20.03;;;10.27;;
11655;SDS011;5884;43.618;1.438;2023-02-03T10:50:37;22.50;;;10.27;;
11655;SDS011;5884;43.618;1.438;2023-02-03T10:53:21;18.07;;;10.10;;
11655;SDS011;5884;43.618;1.438;2023-02-03T10:55:58;21.87;;;9.17;;
11655;SDS011;5884;43.618;1.438;2023-02-03T10:58:29;18.20;;;8.47;;
11655;SDS011;5884;43.618;1.438;2023-02-03T11:01:03;25.13;;;8.77;;
11655;SDS011;5884;43.618;1.438;2023-02-03T11:03:36;20.50;;;9.43;;
11655;SDS011;5884;43.618;1.438;2023-02-03T11:06:08;24.83;;;9.80;;
11655;SDS011;5884;43.618;1.438;2023-02-03T11:08:38;22.90;;;9.67;;
11655;SDS011;5884;43.618;1.438;2023-02-03T11:11:08;23.90;;;8.93;;
11655;SDS011;5884;43.618;1.438;2023-02-03T11:13:39;17.57;;;8.47;;
11655;SDS011;5884;43.618;1.438;2023-02-03T11:16:09;20.73;;;9.40;;
11655;SDS011;5884;43.618;1.438;2023-02-03T11:18:42;25.63;;;8.90;;
11655;SDS011;5884;43.618;1.438;2023-02-03T11:21:16;20.67;;;8.90;;
11655;SDS011;5884;43.618;1.438;2023-02-03T11:23:51;21.03;;;8.67;;
11655;SDS011;5884;43.618;1.438;2023-02-03T11:26:28;19.73;;;7.77;;
11655;SDS011;5884;43.618;1.438;2023-02-03T11:28:59;17.67;;;8.70;;
11655;SDS011;5884;43.618;1.438;2023-02-03T11:31:31;18.30;;;7.70;;
11655;SDS011;5884;43.618;1.438;2023-02-03T11:34:02;18.70;;;6.87;;
11655;SDS011;5884;43.618;1.438;2023-02-03T11:36:32;18.60;;;8.43;;
11655;SDS011;5884;43.618;1.438;2023-02-03T11:41:50;15.73;;;9.00;;
11655;SDS011;5884;43.618;1.438;2023-02-03T11:44:20;17.00;;;8.63;;
11655;SDS011;5884;43.618;1.438;2023-02-03T11:46:51;18.60;;;8.80;;
11655;SDS011;5884;43.618;1.438;2023-02-03T11:49:35;18.30;;;8.37;;
11655;SDS011;5884;43.618;1.438;2023-02-03T11:55:32;19.87;;;9.53;;
11655;SDS011;5884;43.618;1.438;2023-02-03T11:58:27;36.17;;;16.90;;
11655;SDS011;5884;43.618;1.438;2023-02-03T12:01:24;41.57;;;18.87;;
11655;SDS011;5884;43.618;1.438;2023-02-03T12:07:33;20.77;;;11.40;;
11655;SDS011;5884;43.618;1.438;2023-02-03T12:10:27;15.03;;;7.33;;
11655;SDS011;5884;43.618;1.438;2023-02-03T12:13:09;13.27;;;6.90;;
11655;SDS011;5884;43.618;1.438;2023-02-03T12:16:02;14.33;;;7.40;;
11655;SDS011;5884;43.618;1.438;2023-02-03T12:18:49;16.60;;;7.17;;
11655;SDS011;5884;43.618;1.438;2023-02-03T12:21:31;18.53;;;6.67;;
11655;SDS011;5884;43.618;1.438;2023-02-03T12:24:11;17.53;;;7.13;;
11655;SDS011;5884;43.618;1.438;2023-02-03T12:26:53;14.13;;;6.97;;
11655;SDS011;5884;43.618;1.438;2023-02-03T12:29:30;15.57;;;6.40;;
11655;SDS011;5884;43.618;1.438;2023-02-03T12:32:05;16.77;;;6.80;;
11655;SDS011;5884;43.618;1.438;2023-02-03T12:34:41;18.67;;;6.70;;
11655;SDS011;5884;43.618;1.438;2023-02-03T12:37:15;17.27;;;5.77;;
11655;SDS011;5884;43.618;1.438;2023-02-03T12:39:48;12.27;;;6.37;;
11655;SDS011;5884;43.618;1.438;2023-02-03T12:42:19;16.83;;;6.07;;
11655;SDS011;5884;43.618;1.438;2023-02-03T12:44:54;16.60;;;5.43;;
11655;SDS011;5884;43.618;1.438;2023-02-03T12:47:27;16.70;;;5.47;;
11655;SDS011;5884;43.618;1.438;2023-02-03T12:50:02;12.40;;;5.60;;
11655;SDS011;5884;43.618;1.438;2023-02-03T12:52:37;12.23;;;4.70;;
11655;SDS011;5884;43.618;1.438;2023-02-03T12:55:19;11.93;;;4.90;;
11655;SDS011;5884;43.618;1.438;2023-02-03T12:57:55;17.13;;;5.73;;
11655;SDS011;5884;43.618;1.438;2023-02-03T13:00:29;13.83;;;5.67;;
11655;SDS011;5884;43.618;1.438;2023-02-03T13:03:15;11.37;;;5.00;;
11655;SDS011;5884;43.618;1.438;2023-02-03T13:05:50;18.73;;;6.00;;
11655;SDS011;5884;43.618;1.438;2023-02-03T13:08:24;21.00;;;6.23;;
11655;SDS011;5884;43.618;1.438;2023-02-03T13:10:59;11.17;;;5.07;;
11655;SDS011;5884;43.618;1.438;2023-02-03T13:13:39;12.63;;;4.77;;
11655;SDS011;5884;43.618;1.438;2023-02-03T13:16:13;12.37;;;5.23;;
11655;SDS011;5884;43.618;1.438;2023-02-03T13:18:46;13.10;;;5.77;;
11655;SDS011;5884;43.618;1.438;2023-02-03T13:21:19;12.47;;;5.97;;
11655;SDS011;5884;43.618;1.438;2023-02-03T13:23:49;14.27;;;5.53;;
11655;SDS011;5884;43.618;1.438;2023-02-03T13:26:20;13.37;;;5.17;;
11655;SDS011;5884;43.618;1.438;2023-02-03T13:29:17;17.27;;;5.20;;
11655;SDS011;5884;43.618;1.438;2023-02-03T13:32:17;16.93;;;5.43;;
11655;SDS011;5884;43.618;1.438;2023-02-03T13:35:14;13.37;;;5.10;;
11655;SDS011;5884;43.618;1.438;2023-02-03T13:38:01;18.77;;;5.27;;
11655;SDS011;5884;43.618;1.438;2023-02-03T13:40:56;16.00;;;4.77;;
11655;SDS011;5884;43.618;1.438;2023-02-03T13:43:31;11.53;;;5.13;;
11655;SDS011;5884;43.618;1.438;2023-02-03T13:46:03;16.90;;;5.37;;
11655;SDS011;5884;43.618;1.438;2023-02-03T13:48:31;15.33;;;5.13;;
11655;SDS011;5884;43.618;1.438;2023-02-03T13:51:04;16.47;;;5.50;;
11655;SDS011;5884;43.618;1.438;2023-02-03T13:53:39;13.43;;;5.17;;
11655;SDS011;5884;43.618;1.438;2023-02-03T13:56:16;11.53;;;5.37;;
11655;SDS011;5884;43.618;1.438;2023-02-03T13:58:58;17.37;;;5.13;;
11655;SDS011;5884;43.618;1.438;2023-02-03T14:01:29;17.77;;;5.33;;
11655;SDS011;5884;43.618;1.438;2023-02-03T14:04:02;10.90;;;5.30;;
11655;SDS011;5884;43.618;1.438;2023-02-03T14:09:35;13.03;;;4.80;;
11655;SDS011;5884;43.618;1.438;2023-02-03T14:12:18;18.10;;;5.53;;
11655;SDS011;5884;43.618;1.438;2023-02-03T14:15:27;12.83;;;4.70;;
11655;SDS011;5884;43.618;1.438;2023-02-03T14:23:48;13.73;;;4.20;;
11655;SDS011;5884;43.618;1.438;2023-02-03T14:26:28;13.73;;;4.60;;
11655;SDS011;5884;43.618;1.438;2023-02-03T14:29:04;11.83;;;4.07;;
11655;SDS011;5884;43.618;1.438;2023-02-03T14:31:50;8.13;;;4.40;;
11655;SDS011;5884;43.618;1.438;2023-02-03T14:34:26;11.33;;;3.80;;
11655;SDS011;5884;43.618;1.438;2023-02-03T14:36:58;12.03;;;4.93;;
11655;SDS011;5884;43.618;1.438;2023-02-03T14:42:59;11.63;;;3.90;;
11655;SDS011;5884;43.618;1.438;2023-02-03T14:45:58;11.00;;;4.07;;
11655;SDS011;5884;43.618;1.438;2023-02-03T14:52:05;11.40;;;4.13;;
11655;SDS011;5884;43.618;1.438;2023-02-03T14:54:58;11.63;;;4.30;;
11655;SDS011;5884;43.618;1.438;2023-02-03T14:57:38;10.43;;;4.50;;
11655;SDS011;5884;43.618;1.438;2023-02-03T15:00:26;15.43;;;4.53;;
11655;SDS011;5884;43.618;1.438;2023-02-03T15:03:18;10.60;;;4.27;;
11655;SDS011;5884;43.618;1.438;2023-02-03T15:05:55;13.97;;;5.27;;
11655;SDS011;5884;43.618;1.438;2023-02-03T15:08:29;12.73;;;4.63;;
11655;SDS011;5884;43.618;1.438;2023-02-03T15:11:20;8.87;;;4.37;;
11655;SDS011;5884;43.618;1.438;2023-02-03T15:14:18;11.87;;;4.57;;
11655;SDS011;5884;43.618;1.438;2023-02-03T15:16:49;12.30;;;4.83;;
11655;SDS011;5884;43.618;1.438;2023-02-03T15:19:23;14.50;;;5.30;;
11655;SDS011;5884;43.618;1.438;2023-02-03T15:21:54;10.37;;;5.30;;
11655;SDS011;5884;43.618;1.438;2023-02-03T15:24:21;12.33;;;6.17;;
11655;SDS011;5884;43.618;1.438;2023-02-03T15:26:51;15.80;;;6.53;;
11655;SDS011;5884;43.618;1.438;2023-02-03T15:29:29;14.23;;;5.83;;
11655;SDS011;5884;43.618;1.438;2023-02-03T15:32:01;11.07;;;5.03;;
11655;SDS011;5884;43.618;1.438;2023-02-03T15:34:37;16.10;;;6.30;;
11655;SDS011;5884;43.618;1.438;2023-02-03T15:37:08;13.03;;;5.90;;
11655;SDS011;5884;43.618;1.438;2023-02-03T15:39:45;15.87;;;6.30;;
11655;SDS011;5884;43.618;1.438;2023-02-03T15:42:24;17.13;;;8.70;;
11655;SDS011;5884;43.618;1.438;2023-02-03T15:44:58;16.80;;;8.83;;
11655;SDS011;5884;43.618;1.438;2023-02-03T15:47:30;20.90;;;8.10;;
11655;SDS011;5884;43.618;1.438;2023-02-03T15:50:07;14.30;;;6.10;;
11655;SDS011;5884;43.618;1.438;2023-02-03T15:52:50;15.80;;;7.00;;
11655;SDS011;5884;43.618;1.438;2023-02-03T15:55:22;11.57;;;5.57;;
11655;SDS011;5884;43.618;1.438;2023-02-03T15:57:57;17.90;;;4.80;;
11655;SDS011;5884;43.618;1.438;2023-02-03T16:00:34;14.07;;;6.10;;
11655;SDS011;5884;43.618;1.438;2023-02-03T16:03:05;17.73;;;7.00;;
11655;SDS011;5884;43.618;1.438;2023-02-03T16:05:47;12.60;;;6.13;;
11655;SDS011;5884;43.618;1.438;2023-02-03T16:08:25;12.10;;;5.80;;
11655;SDS011;5884;43.618;1.438;2023-02-03T16:14:05;13.33;;;7.47;;
11655;SDS011;5884;43.618;1.438;2023-02-03T16:16:35;13.13;;;7.40;;
11655;SDS011;5884;43.618;1.438;2023-02-03T16:19:09;12.50;;;6.77;;
11655;SDS011;5884;43.618;1.438;2023-02-03T16:21:51;13.43;;;5.50;;
11655;SDS011;5884;43.618;1.438;2023-02-03T16:24:31;12.37;;;5.50;;
11655;SDS011;5884;43.618;1.438;2023-02-03T16:27:20;10.63;;;5.70;;
11655;SDS011;5884;43.618;1.438;2023-02-03T16:33:10;12.47;;;5.27;;
11655;SDS011;5884;43.618;1.438;2023-02-03T16:35:59;11.90;;;4.53;;
11655;SDS011;5884;43.618;1.438;2023-02-03T16:38:53;13.50;;;4.70;;
11655;SDS011;5884;43.618;1.438;2023-02-03T16:41:39;11.30;;;4.27;;
11655;SDS011;5884;43.618;1.438;2023-02-03T16:44:23;10.90;;;5.80;;
11655;SDS011;5884;43.618;1.438;2023-02-03T16:47:14;18.50;;;9.53;;
11655;SDS011;5884;43.618;1.438;2023-02-03T16:50:11;31.10;;;15.93;;
11655;SDS011;5884;43.618;1.438;2023-02-03T16:52:57;42.23;;;22.50;;
11655;SDS011;5884;43.618;1.438;2023-02-03T16:55:25;48.40;;;25.07;;
11655;SDS011;5884;43.618;1.438;2023-02-03T16:57:53;39.00;;;20.97;;
11655;SDS011;5884;43.618;1.438;2023-02-03T17:00:20;33.90;;;17.00;;
11655;SDS011;5884;43.618;1.438;2023-02-03T17:02:48;31.87;;;16.77;;
11655;SDS011;5884;43.618;1.438;2023-02-03T17:05:15;26.90;;;16.00;;
11655;SDS011;5884;43.618;1.438;2023-02-03T17:07:43;25.60;;;14.00;;
11655;SDS011;5884;43.618;1.438;2023-02-03T17:10:10;23.97;;;11.13;;
11655;SDS011;5884;43.618;1.438;2023-02-03T17:12:40;25.53;;;14.97;;
11655;SDS011;5884;43.618;1.438;2023-02-03T17:15:07;31.37;;;16.33;;
11655;SDS011;5884;43.618;1.438;2023-02-03T17:17:35;32.37;;;17.90;;
11655;SDS011;5884;43.618;1.438;2023-02-03T17:20:03;33.07;;;17.40;;
11655;SDS011;5884;43.618;1.438;2023-02-03T17:22:31;31.00;;;16.27;;
11655;SDS011;5884;43.618;1.438;2023-02-03T17:24:58;23.33;;;13.53;;
11655;SDS011;5884;43.618;1.438;2023-02-03T17:27:25;23.87;;;13.83;;
11655;SDS011;5884;43.618;1.438;2023-02-03T17:29:54;22.97;;;12.10;;
11655;SDS011;5884;43.618;1.438;2023-02-03T17:32:21;21.17;;;11.50;;
11655;SDS011;5884;43.618;1.438;2023-02-03T17:34:48;17.60;;;10.23;;
11655;SDS011;5884;43.618;1.438;2023-02-03T17:37:16;22.43;;;10.53;;
11655;SDS011;5884;43.618;1.438;2023-02-03T17:39:43;19.83;;;10.27;;
11655;SDS011;5884;43.618;1.438;2023-02-03T17:42:10;21.67;;;10.83;;
11655;SDS011;5884;43.618;1.438;2023-02-03T17:44:37;28.63;;;10.73;;
11655;SDS011;5884;43.618;1.438;2023-02-03T17:47:09;21.73;;;12.87;;
11655;SDS011;5884;43.618;1.438;2023-02-03T17:49:36;23.13;;;11.97;;
11655;SDS011;5884;43.618;1.438;2023-02-03T17:52:03;33.00;;;16.90;;
11655;SDS011;5884;43.618;1.438;2023-02-03T17:54:31;147.07;;;82.93;;
11655;SDS011;5884;43.618;1.438;2023-02-03T17:56:58;65.63;;;39.87;;
11655;SDS011;5884;43.618;1.438;2023-02-03T17:59:25;34.00;;;20.80;;
11655;SDS011;5884;43.618;1.438;2023-02-03T18:01:52;33.63;;;19.20;;
11655;SDS011;5884;43.618;1.438;2023-02-03T18:04:21;24.67;;;13.70;;
11655;SDS011;5884;43.618;1.438;2023-02-03T18:06:48;24.80;;;12.97;;
11655;SDS011;5884;43.618;1.438;2023-02-03T18:09:17;35.43;;;17.50;;
11655;SDS011;5884;43.618;1.438;2023-02-03T18:11:44;48.00;;;24.53;;
11655;SDS011;5884;43.618;1.438;2023-02-03T18:14:12;28.73;;;15.77;;
11655;SDS011;5884;43.618;1.438;2023-02-03T18:16:41;32.70;;;18.83;;
11655;SDS011;5884;43.618;1.438;2023-02-03T18:19:10;82.60;;;51.77;;
11655;SDS011;5884;43.618;1.438;2023-02-03T18:21:41;66.93;;;42.60;;
11655;SDS011;5884;43.618;1.438;2023-02-03T18:24:09;33.57;;;20.27;;
11655;SDS011;5884;43.618;1.438;2023-02-03T18:26:44;20.63;;;12.97;;
11655;SDS011;5884;43.618;1.438;2023-02-03T18:29:14;25.43;;;13.93;;
11655;SDS011;5884;43.618;1.438;2023-02-03T18:31:41;22.00;;;15.57;;
11655;SDS011;5884;43.618;1.438;2023-02-03T18:34:09;25.10;;;13.47;;
11655;SDS011;5884;43.618;1.438;2023-02-03T18:36:38;25.37;;;14.87;;
11655;SDS011;5884;43.618;1.438;2023-02-03T18:39:07;25.43;;;12.97;;
11655;SDS011;5884;43.618;1.438;2023-02-03T18:41:34;26.40;;;11.90;;
11655;SDS011;5884;43.618;1.438;2023-02-03T18:44:02;19.87;;;11.43;;
11655;SDS011;5884;43.618;1.438;2023-02-03T18:46:30;18.63;;;10.47;;
11655;SDS011;5884;43.618;1.438;2023-02-03T18:48:58;22.90;;;10.90;;
11655;SDS011;5884;43.618;1.438;2023-02-03T18:51:26;25.87;;;14.40;;
11655;SDS011;5884;43.618;1.438;2023-02-03T18:53:56;24.60;;;12.63;;
11655;SDS011;5884;43.618;1.438;2023-02-03T18:56:25;25.73;;;12.30;;
11655;SDS011;5884;43.618;1.438;2023-02-03T18:58:59;31.63;;;16.90;;
11655;SDS011;5884;43.618;1.438;2023-02-03T19:01:29;28.67;;;16.33;;
11655;SDS011;5884;43.618;1.438;2023-02-03T19:03:58;19.70;;;13.53;;
11655;SDS011;5884;43.618;1.438;2023-02-03T19:06:27;20.50;;;13.27;;
11655;SDS011;5884;43.618;1.438;2023-02-03T19:08:58;24.60;;;13.47;;
11655;SDS011;5884;43.618;1.438;2023-02-03T19:11:26;35.03;;;19.53;;
11655;SDS011;5884;43.618;1.438;2023-02-03T19:13:54;28.57;;;17.57;;
11655;SDS011;5884;43.618;1.438;2023-02-03T19:16:21;30.50;;;17.40;;
11655;SDS011;5884;43.618;1.438;2023-02-03T19:18:48;37.50;;;18.30;;
11655;SDS011;5884;43.618;1.438;2023-02-03T19:21:15;30.10;;;17.60;;
11655;SDS011;5884;43.618;1.438;2023-02-03T19:23:45;25.80;;;14.53;;
11655;SDS011;5884;43.618;1.438;2023-02-03T19:26:14;26.73;;;14.63;;
11655;SDS011;5884;43.618;1.438;2023-02-03T19:28:41;26.40;;;15.87;;
11655;SDS011;5884;43.618;1.438;2023-02-03T19:31:09;29.57;;;15.63;;
11655;SDS011;5884;43.618;1.438;2023-02-03T19:33:39;32.37;;;14.03;;
11655;SDS011;5884;43.618;1.438;2023-02-03T19:36:07;27.30;;;13.77;;
11655;SDS011;5884;43.618;1.438;2023-02-03T19:38:35;28.30;;;16.30;;
11655;SDS011;5884;43.618;1.438;2023-02-03T19:41:03;25.93;;;15.33;;
11655;SDS011;5884;43.618;1.438;2023-02-03T19:43:32;27.70;;;15.80;;
11655;SDS011;5884;43.618;1.438;2023-02-03T19:46:00;29.00;;;15.83;;
11655;SDS011;5884;43.618;1.438;2023-02-03T19:48:27;31.67;;;15.90;;
11655;SDS011;5884;43.618;1.438;2023-02-03T19:50:54;26.27;;;16.27;;
11655;SDS011;5884;43.618;1.438;2023-02-03T19:53:21;33.73;;;18.73;;
11655;SDS011;5884;43.618;1.438;2023-02-03T19:55:49;35.63;;;19.33;;
11655;SDS011;5884;43.618;1.438;2023-02-03T19:58:16;36.97;;;20.73;;
11655;SDS011;5884;43.618;1.438;2023-02-03T20:00:45;31.83;;;18.33;;
11655;SDS011;5884;43.618;1.438;2023-02-03T20:03:12;28.33;;;16.97;;
11655;SDS011;5884;43.618;1.438;2023-02-03T20:05:41;30.43;;;17.07;;
11655;SDS011;5884;43.618;1.438;2023-02-03T20:08:09;28.63;;;17.53;;
11655;SDS011;5884;43.618;1.438;2023-02-03T20:10:38;28.47;;;16.47;;
11655;SDS011;5884;43.618;1.438;2023-02-03T20:13:06;26.67;;;16.63;;
11655;SDS011;5884;43.618;1.438;2023-02-03T20:15:34;32.43;;;16.50;;
11655;SDS011;5884;43.618;1.438;2023-02-03T20:18:03;26.20;;;15.77;;
11655;SDS011;5884;43.618;1.438;2023-02-03T20:20:32;29.20;;;15.67;;
11655;SDS011;5884;43.618;1.438;2023-02-03T20:23:00;27.63;;;15.17;;
11655;SDS011;5884;43.618;1.438;2023-02-03T20:25:27;29.60;;;15.37;;
11655;SDS011;5884;43.618;1.438;2023-02-03T20:27:54;46.47;;;23.10;;
11655;SDS011;5884;43.618;1.438;2023-02-03T20:30:23;33.87;;;18.63;;
11655;SDS011;5884;43.618;1.438;2023-02-03T20:32:51;25.73;;;15.87;;
11655;SDS011;5884;43.618;1.438;2023-02-03T20:35:20;34.00;;;17.73;;
11655;SDS011;5884;43.618;1.438;2023-02-03T20:37:49;26.10;;;16.13;;
11655;SDS011;5884;43.618;1.438;2023-02-03T20:40:20;30.33;;;16.80;;
11655;SDS011;5884;43.618;1.438;2023-02-03T20:42:50;27.67;;;16.93;;
11655;SDS011;5884;43.618;1.438;2023-02-03T20:45:18;30.90;;;18.70;;
11655;SDS011;5884;43.618;1.438;2023-02-03T20:47:48;29.03;;;18.60;;
11655;SDS011;5884;43.618;1.438;2023-02-03T20:50:16;27.10;;;17.63;;
11655;SDS011;5884;43.618;1.438;2023-02-03T20:52:47;32.63;;;17.10;;
11655;SDS011;5884;43.618;1.438;2023-02-03T20:55:16;29.13;;;17.47;;
11655;SDS011;5884;43.618;1.438;2023-02-03T20:57:47;30.77;;;18.10;;
11655;SDS011;5884;43.618;1.438;2023-02-03T21:00:18;30.37;;;18.50;;
11655;SDS011;5884;43.618;1.438;2023-02-03T21:02:48;23.90;;;16.40;;
11655;SDS011;5884;43.618;1.438;2023-02-03T21:05:35;30.53;;;17.33;;
11655;SDS011;5884;43.618;1.438;2023-02-03T21:08:10;39.57;;;21.67;;
11655;SDS011;5884;43.618;1.438;2023-02-03T21:10:38;51.23;;;28.23;;
11655;SDS011;5884;43.618;1.438;2023-02-03T21:13:15;54.90;;;29.90;;
11655;SDS011;5884;43.618;1.438;2023-02-03T21:15:47;41.47;;;24.57;;
11655;SDS011;5884;43.618;1.438;2023-02-03T21:18:26;38.27;;;21.03;;
11655;SDS011;5884;43.618;1.438;2023-02-03T21:21:00;37.23;;;20.17;;
11655;SDS011;5884;43.618;1.438;2023-02-03T21:23:31;30.90;;;17.90;;
11655;SDS011;5884;43.618;1.438;2023-02-03T21:26:13;28.00;;;17.07;;
11655;SDS011;5884;43.618;1.438;2023-02-03T21:28:43;31.73;;;18.03;;
11655;SDS011;5884;43.618;1.438;2023-02-03T21:31:22;31.03;;;17.27;;